sensor_id;sensor_type;location;lat;lon;timestamp;P1;durP1;ratioP1;P2;durP2;ratioP2
35877;SDS011;21982;49.804;24.072;2023-12-29T00:03:38;13.35;;;5.63;;
35877;SDS011;21982;49.804;24.072;2023-12-29T00:06:04;12.05;;;5.60;;
35877;SDS011;21982;49.804;24.072;2023-12-29T00:08:30;10.07;;;4.93;;
35877;SDS011;21982;49.804;24.072;2023-12-29T00:10:56;12.77;;;5.90;;
35877;SDS011;21982;49.804;24.072;2023-12-29T00:13:22;12.65;;;6.10;;
35877;SDS011;21982;49.804;24.072;2023-12-29T00:15:56;10.52;;;6.07;;
35877;SDS011;21982;49.804;24.072;2023-12-29T00:18:22;10.38;;;5.47;;
35877;SDS011;21982;49.804;24.072;2023-12-29T00:20:50;9.50;;;5.05;;
35877;SDS011;21982;49.804;24.072;2023-12-29T00:23:16;10.38;;;5.90;;
35877;SDS011;21982;49.804;24.072;2023-12-29T00:25:41;12.77;;;5.18;;
35877;SDS011;21982;49.804;24.072;2023-12-29T00:28:07;10.32;;;5.82;;
35877;SDS011;21982;49.804;24.072;2023-12-29T00:30:33;9.93;;;5.15;;
35877;SDS011;21982;49.804;24.072;2023-12-29T00:32:59;12.63;;;5.25;;
35877;SDS011;21982;49.804;24.072;2023-12-29T00:35:25;12.00;;;6.18;;
35877;SDS011;21982;49.804;24.072;2023-12-29T00:37:51;10.13;;;4.68;;
35877;SDS011;21982;49.804;24.072;2023-12-29T00:40:16;10.95;;;5.80;;
35877;SDS011;21982;49.804;24.072;2023-12-29T00:42:42;13.95;;;5.75;;
35877;SDS011;21982;49.804;24.072;2023-12-29T00:45:08;10.82;;;5.22;;
35877;SDS011;21982;49.804;24.072;2023-12-29T00:47:34;9.98;;;5.85;;
35877;SDS011;21982;49.804;24.072;2023-12-29T00:50:00;9.88;;;5.20;;
35877;SDS011;21982;49.804;24.072;2023-12-29T00:52:27;10.60;;;5.32;;
35877;SDS011;21982;49.804;24.072;2023-12-29T00:54:53;13.38;;;6.03;;
35877;SDS011;21982;49.804;24.072;2023-12-29T00:57:21;13.20;;;6.22;;
35877;SDS011;21982;49.804;24.072;2023-12-29T00:59:47;10.73;;;5.97;;
35877;SDS011;21982;49.804;24.072;2023-12-29T01:02:12;9.32;;;5.03;;
35877;SDS011;21982;49.804;24.072;2023-12-29T01:04:38;11.40;;;6.10;;
35877;SDS011;21982;49.804;24.072;2023-12-29T01:07:06;9.52;;;5.47;;
35877;SDS011;21982;49.804;24.072;2023-12-29T01:09:32;12.77;;;6.60;;
35877;SDS011;21982;49.804;24.072;2023-12-29T01:12:03;11.88;;;6.50;;
35877;SDS011;21982;49.804;24.072;2023-12-29T01:14:29;10.80;;;5.32;;
35877;SDS011;21982;49.804;24.072;2023-12-29T01:16:54;9.43;;;5.30;;
35877;SDS011;21982;49.804;24.072;2023-12-29T01:19:20;10.77;;;5.25;;
35877;SDS011;21982;49.804;24.072;2023-12-29T01:21:45;12.57;;;5.95;;
35877;SDS011;21982;49.804;24.072;2023-12-29T01:24:11;11.05;;;5.45;;
35877;SDS011;21982;49.804;24.072;2023-12-29T01:26:37;10.38;;;5.45;;
35877;SDS011;21982;49.804;24.072;2023-12-29T01:29:03;10.38;;;5.25;;
35877;SDS011;21982;49.804;24.072;2023-12-29T01:31:30;11.35;;;5.20;;
35877;SDS011;21982;49.804;24.072;2023-12-29T01:33:56;10.80;;;5.43;;
35877;SDS011;21982;49.804;24.072;2023-12-29T01:36:21;13.20;;;5.00;;
35877;SDS011;21982;49.804;24.072;2023-12-29T01:38:49;13.65;;;6.25;;
35877;SDS011;21982;49.804;24.072;2023-12-29T01:41:14;10.38;;;5.13;;
35877;SDS011;21982;49.804;24.072;2023-12-29T01:46:24;9.60;;;5.13;;
35877;SDS011;21982;49.804;24.072;2023-12-29T01:48:52;10.27;;;4.97;;
35877;SDS011;21982;49.804;24.072;2023-12-29T01:51:20;8.77;;;4.20;;
35877;SDS011;21982;49.804;24.072;2023-12-29T01:53:49;8.82;;;4.75;;
35877;SDS011;21982;49.804;24.072;2023-12-29T01:59:07;9.48;;;4.43;;
35877;SDS011;21982;49.804;24.072;2023-12-29T02:06:46;11.40;;;4.53;;
35877;SDS011;21982;49.804;24.072;2023-12-29T02:09:11;8.43;;;3.90;;
35877;SDS011;21982;49.804;24.072;2023-12-29T02:11:37;11.13;;;6.25;;
35877;SDS011;21982;49.804;24.072;2023-12-29T02:14:03;10.35;;;5.18;;
35877;SDS011;21982;49.804;24.072;2023-12-29T02:16:45;7.22;;;4.13;;
35877;SDS011;21982;49.804;24.072;2023-12-29T02:22:02;8.30;;;4.47;;
35877;SDS011;21982;49.804;24.072;2023-12-29T02:24:28;9.32;;;4.70;;
35877;SDS011;21982;49.804;24.072;2023-12-29T02:26:57;8.02;;;4.43;;
35877;SDS011;21982;49.804;24.072;2023-12-29T02:29:32;8.93;;;4.68;;
35877;SDS011;21982;49.804;24.072;2023-12-29T02:32:03;7.95;;;4.47;;
35877;SDS011;21982;49.804;24.072;2023-12-29T02:34:36;8.35;;;4.75;;
35877;SDS011;21982;49.804;24.072;2023-12-29T02:37:05;9.32;;;4.72;;
35877;SDS011;21982;49.804;24.072;2023-12-29T02:39:33;12.75;;;5.05;;
35877;SDS011;21982;49.804;24.072;2023-12-29T02:41:59;13.40;;;5.65;;
35877;SDS011;21982;49.804;24.072;2023-12-29T02:44:25;10.57;;;4.85;;
35877;SDS011;21982;49.804;24.072;2023-12-29T02:46:51;7.45;;;4.50;;
35877;SDS011;21982;49.804;24.072;2023-12-29T02:49:16;10.43;;;5.63;;
35877;SDS011;21982;49.804;24.072;2023-12-29T02:51:42;11.70;;;4.75;;
35877;SDS011;21982;49.804;24.072;2023-12-29T02:54:10;8.25;;;4.72;;
35877;SDS011;21982;49.804;24.072;2023-12-29T02:56:36;10.10;;;5.22;;
35877;SDS011;21982;49.804;24.072;2023-12-29T02:59:01;10.82;;;5.82;;
35877;SDS011;21982;49.804;24.072;2023-12-29T03:01:27;8.68;;;5.38;;
35877;SDS011;21982;49.804;24.072;2023-12-29T03:03:54;12.90;;;5.85;;
35877;SDS011;21982;49.804;24.072;2023-12-29T03:06:20;8.52;;;5.15;;
35877;SDS011;21982;49.804;24.072;2023-12-29T03:08:50;10.70;;;5.65;;
35877;SDS011;21982;49.804;24.072;2023-12-29T03:11:18;10.27;;;5.82;;
35877;SDS011;21982;49.804;24.072;2023-12-29T03:13:44;9.57;;;5.18;;
35877;SDS011;21982;49.804;24.072;2023-12-29T03:16:09;12.23;;;5.40;;
35877;SDS011;21982;49.804;24.072;2023-12-29T03:18:41;10.15;;;6.13;;
35877;SDS011;21982;49.804;24.072;2023-12-29T03:21:07;10.00;;;5.35;;
35877;SDS011;21982;49.804;24.072;2023-12-29T03:23:32;11.00;;;5.80;;
35877;SDS011;21982;49.804;24.072;2023-12-29T03:25:59;10.20;;;5.68;;
35877;SDS011;21982;49.804;24.072;2023-12-29T03:28:24;10.13;;;5.22;;
35877;SDS011;21982;49.804;24.072;2023-12-29T03:31:19;10.70;;;5.72;;
35877;SDS011;21982;49.804;24.072;2023-12-29T03:33:45;11.77;;;6.25;;
35877;SDS011;21982;49.804;24.072;2023-12-29T03:36:10;13.20;;;5.90;;
35877;SDS011;21982;49.804;24.072;2023-12-29T03:47:12;12.30;;;6.07;;
35877;SDS011;21982;49.804;24.072;2023-12-29T04:14:32;9.65;;;5.90;;
35877;SDS011;21982;49.804;24.072;2023-12-29T04:20:21;12.23;;;6.53;;
35877;SDS011;21982;49.804;24.072;2023-12-29T04:22:47;13.57;;;6.25;;
35877;SDS011;21982;49.804;24.072;2023-12-29T04:25:13;16.77;;;6.53;;
35877;SDS011;21982;49.804;24.072;2023-12-29T04:27:41;13.88;;;6.28;;
35877;SDS011;21982;49.804;24.072;2023-12-29T04:30:06;11.80;;;7.05;;
35877;SDS011;21982;49.804;24.072;2023-12-29T04:32:32;11.98;;;6.35;;
35877;SDS011;21982;49.804;24.072;2023-12-29T04:34:58;13.55;;;6.65;;
35877;SDS011;21982;49.804;24.072;2023-12-29T04:37:24;12.40;;;5.95;;
35877;SDS011;21982;49.804;24.072;2023-12-29T04:39:50;11.18;;;5.57;;
35877;SDS011;21982;49.804;24.072;2023-12-29T04:47:25;9.93;;;6.22;;
35877;SDS011;21982;49.804;24.072;2023-12-29T04:49:54;12.20;;;6.40;;
35877;SDS011;21982;49.804;24.072;2023-12-29T04:52:19;13.80;;;7.03;;
35877;SDS011;21982;49.804;24.072;2023-12-29T04:57:20;13.02;;;6.72;;
35877;SDS011;21982;49.804;24.072;2023-12-29T04:59:46;12.45;;;6.05;;
35877;SDS011;21982;49.804;24.072;2023-12-29T05:02:11;13.82;;;7.90;;
35877;SDS011;21982;49.804;24.072;2023-12-29T05:04:37;11.07;;;5.70;;
35877;SDS011;21982;49.804;24.072;2023-12-29T05:07:08;13.10;;;6.22;;
35877;SDS011;21982;49.804;24.072;2023-12-29T05:09:36;11.32;;;6.13;;
35877;SDS011;21982;49.804;24.072;2023-12-29T05:12:02;16.20;;;7.72;;
35877;SDS011;21982;49.804;24.072;2023-12-29T05:14:28;11.52;;;5.65;;
35877;SDS011;21982;49.804;24.072;2023-12-29T05:16:54;10.50;;;6.05;;
35877;SDS011;21982;49.804;24.072;2023-12-29T05:19:19;12.57;;;7.32;;
35877;SDS011;21982;49.804;24.072;2023-12-29T05:21:48;11.10;;;6.10;;
35877;SDS011;21982;49.804;24.072;2023-12-29T05:24:19;10.80;;;5.83;;
35877;SDS011;21982;49.804;24.072;2023-12-29T05:26:44;13.45;;;6.13;;
35877;SDS011;21982;49.804;24.072;2023-12-29T05:29:10;10.93;;;5.90;;
35877;SDS011;21982;49.804;24.072;2023-12-29T05:31:36;9.52;;;5.65;;
35877;SDS011;21982;49.804;24.072;2023-12-29T05:34:03;12.18;;;6.85;;
35877;SDS011;21982;49.804;24.072;2023-12-29T05:36:34;12.63;;;6.80;;
35877;SDS011;21982;49.804;24.072;2023-12-29T05:39:01;13.10;;;6.32;;
35877;SDS011;21982;49.804;24.072;2023-12-29T05:41:34;12.20;;;6.47;;
35877;SDS011;21982;49.804;24.072;2023-12-29T05:43:59;13.80;;;7.18;;
35877;SDS011;21982;49.804;24.072;2023-12-29T05:46:26;12.98;;;6.93;;
35877;SDS011;21982;49.804;24.072;2023-12-29T05:48:51;12.02;;;6.47;;
35877;SDS011;21982;49.804;24.072;2023-12-29T05:51:18;10.98;;;6.50;;
35877;SDS011;21982;49.804;24.072;2023-12-29T05:53:44;9.98;;;5.57;;
35877;SDS011;21982;49.804;24.072;2023-12-29T05:56:12;12.25;;;6.70;;
35877;SDS011;21982;49.804;24.072;2023-12-29T05:58:41;10.98;;;6.53;;
35877;SDS011;21982;49.804;24.072;2023-12-29T06:01:07;13.43;;;6.80;;
35877;SDS011;21982;49.804;24.072;2023-12-29T06:03:34;10.38;;;5.93;;
35877;SDS011;21982;49.804;24.072;2023-12-29T06:13:45;13.13;;;6.47;;
35877;SDS011;21982;49.804;24.072;2023-12-29T06:16:19;16.20;;;6.65;;
35877;SDS011;21982;49.804;24.072;2023-12-29T06:18:50;13.15;;;7.35;;
35877;SDS011;21982;49.804;24.072;2023-12-29T06:21:16;11.48;;;6.30;;
35877;SDS011;21982;49.804;24.072;2023-12-29T06:26:18;13.52;;;6.18;;
35877;SDS011;21982;49.804;24.072;2023-12-29T06:28:51;11.27;;;6.88;;
35877;SDS011;21982;49.804;24.072;2023-12-29T06:31:16;10.63;;;6.03;;
35877;SDS011;21982;49.804;24.072;2023-12-29T06:33:43;9.75;;;5.80;;
35877;SDS011;21982;49.804;24.072;2023-12-29T06:36:09;12.95;;;6.78;;
35877;SDS011;21982;49.804;24.072;2023-12-29T06:38:35;13.05;;;7.32;;
35877;SDS011;21982;49.804;24.072;2023-12-29T06:41:02;12.73;;;7.22;;
35877;SDS011;21982;49.804;24.072;2023-12-29T06:43:29;14.38;;;8.63;;
35877;SDS011;21982;49.804;24.072;2023-12-29T06:45:59;13.70;;;7.63;;
35877;SDS011;21982;49.804;24.072;2023-12-29T06:48:25;16.40;;;7.32;;
35877;SDS011;21982;49.804;24.072;2023-12-29T06:50:51;13.65;;;8.15;;
35877;SDS011;21982;49.804;24.072;2023-12-29T06:53:20;14.30;;;7.80;;
35877;SDS011;21982;49.804;24.072;2023-12-29T06:55:49;12.95;;;8.55;;
35877;SDS011;21982;49.804;24.072;2023-12-29T06:58:14;16.00;;;7.97;;
35877;SDS011;21982;49.804;24.072;2023-12-29T07:00:42;14.48;;;8.57;;
35877;SDS011;21982;49.804;24.072;2023-12-29T07:03:07;12.45;;;7.93;;
35877;SDS011;21982;49.804;24.072;2023-12-29T07:05:33;15.68;;;10.10;;
35877;SDS011;21982;49.804;24.072;2023-12-29T07:07:59;13.88;;;7.80;;
35877;SDS011;21982;49.804;24.072;2023-12-29T07:10:24;15.10;;;8.02;;
35877;SDS011;21982;49.804;24.072;2023-12-29T07:12:50;17.08;;;9.00;;
35877;SDS011;21982;49.804;24.072;2023-12-29T07:15:15;14.90;;;9.15;;
35877;SDS011;21982;49.804;24.072;2023-12-29T07:17:44;19.77;;;8.73;;
35877;SDS011;21982;49.804;24.072;2023-12-29T07:20:10;14.20;;;7.55;;
35877;SDS011;21982;49.804;24.072;2023-12-29T07:22:36;14.25;;;7.80;;
35877;SDS011;21982;49.804;24.072;2023-12-29T07:25:17;14.85;;;7.50;;
35877;SDS011;21982;49.804;24.072;2023-12-29T07:27:45;15.52;;;8.15;;
35877;SDS011;21982;49.804;24.072;2023-12-29T07:30:14;16.77;;;8.57;;
35877;SDS011;21982;49.804;24.072;2023-12-29T07:35:24;16.27;;;8.90;;
35877;SDS011;21982;49.804;24.072;2023-12-29T07:37:49;16.25;;;8.85;;
35877;SDS011;21982;49.804;24.072;2023-12-29T07:40:15;17.58;;;9.65;;
35877;SDS011;21982;49.804;24.072;2023-12-29T07:42:45;19.50;;;10.95;;
35877;SDS011;21982;49.804;24.072;2023-12-29T07:45:13;18.83;;;9.10;;
35877;SDS011;21982;49.804;24.072;2023-12-29T07:47:39;16.90;;;9.00;;
35877;SDS011;21982;49.804;24.072;2023-12-29T07:50:04;18.50;;;11.13;;
35877;SDS011;21982;49.804;24.072;2023-12-29T07:52:30;16.17;;;9.00;;
35877;SDS011;21982;49.804;24.072;2023-12-29T07:54:56;15.80;;;8.52;;
35877;SDS011;21982;49.804;24.072;2023-12-29T07:57:24;18.45;;;10.70;;
35877;SDS011;21982;49.804;24.072;2023-12-29T07:59:51;16.17;;;11.48;;
35877;SDS011;21982;49.804;24.072;2023-12-29T08:02:23;17.17;;;8.95;;
35877;SDS011;21982;49.804;24.072;2023-12-29T08:05:05;16.15;;;8.45;;
35877;SDS011;21982;49.804;24.072;2023-12-29T08:07:33;19.08;;;9.52;;
35877;SDS011;21982;49.804;24.072;2023-12-29T08:10:00;16.17;;;9.27;;
35877;SDS011;21982;49.804;24.072;2023-12-29T08:12:26;16.63;;;10.90;;
35877;SDS011;21982;49.804;24.072;2023-12-29T08:14:53;15.52;;;9.35;;
35877;SDS011;21982;49.804;24.072;2023-12-29T08:17:18;16.13;;;9.80;;
35877;SDS011;21982;49.804;24.072;2023-12-29T08:19:44;17.08;;;8.88;;
35877;SDS011;21982;49.804;24.072;2023-12-29T08:22:09;16.80;;;9.02;;
35877;SDS011;21982;49.804;24.072;2023-12-29T08:24:35;17.00;;;10.30;;
35877;SDS011;21982;49.804;24.072;2023-12-29T08:27:01;15.68;;;9.00;;
35877;SDS011;21982;49.804;24.072;2023-12-29T08:29:28;17.40;;;9.95;;
35877;SDS011;21982;49.804;24.072;2023-12-29T08:31:54;16.52;;;9.70;;
35877;SDS011;21982;49.804;24.072;2023-12-29T08:34:19;17.52;;;10.70;;
35877;SDS011;21982;49.804;24.072;2023-12-29T08:36:45;15.52;;;8.27;;
35877;SDS011;21982;49.804;24.072;2023-12-29T08:39:10;19.15;;;10.68;;
35877;SDS011;21982;49.804;24.072;2023-12-29T08:41:38;14.13;;;8.38;;
35877;SDS011;21982;49.804;24.072;2023-12-29T08:44:03;15.18;;;9.23;;
35877;SDS011;21982;49.804;24.072;2023-12-29T08:46:29;16.88;;;10.25;;
35877;SDS011;21982;49.804;24.072;2023-12-29T08:49:02;17.20;;;9.65;;
35877;SDS011;21982;49.804;24.072;2023-12-29T08:51:27;17.63;;;10.38;;
35877;SDS011;21982;49.804;24.072;2023-12-29T08:53:56;18.85;;;10.00;;
35877;SDS011;21982;49.804;24.072;2023-12-29T08:56:21;19.50;;;10.82;;
35877;SDS011;21982;49.804;24.072;2023-12-29T08:58:47;15.88;;;9.50;;
35877;SDS011;21982;49.804;24.072;2023-12-29T09:01:12;19.90;;;11.50;;
35877;SDS011;21982;49.804;24.072;2023-12-29T09:03:38;17.55;;;10.00;;
35877;SDS011;21982;49.804;24.072;2023-12-29T09:06:03;18.55;;;10.80;;
35877;SDS011;21982;49.804;24.072;2023-12-29T09:08:29;16.33;;;8.60;;
35877;SDS011;21982;49.804;24.072;2023-12-29T09:10:56;16.83;;;9.43;;
35877;SDS011;21982;49.804;24.072;2023-12-29T09:13:24;15.00;;;8.73;;
35877;SDS011;21982;49.804;24.072;2023-12-29T09:15:52;14.02;;;8.13;;
35877;SDS011;21982;49.804;24.072;2023-12-29T09:18:19;16.95;;;8.82;;
35877;SDS011;21982;49.804;24.072;2023-12-29T09:20:44;13.80;;;9.48;;
35877;SDS011;21982;49.804;24.072;2023-12-29T09:23:10;14.48;;;8.75;;
35877;SDS011;21982;49.804;24.072;2023-12-29T09:25:38;15.20;;;8.02;;
35877;SDS011;21982;49.804;24.072;2023-12-29T09:28:04;14.85;;;7.95;;
35877;SDS011;21982;49.804;24.072;2023-12-29T09:30:31;14.93;;;9.10;;
35877;SDS011;21982;49.804;24.072;2023-12-29T09:32:57;14.18;;;8.82;;
35877;SDS011;21982;49.804;24.072;2023-12-29T09:35:23;20.05;;;9.70;;
35877;SDS011;21982;49.804;24.072;2023-12-29T09:37:49;14.40;;;8.95;;
35877;SDS011;21982;49.804;24.072;2023-12-29T09:40:15;15.50;;;8.93;;
35877;SDS011;21982;49.804;24.072;2023-12-29T09:42:44;17.23;;;9.32;;
35877;SDS011;21982;49.804;24.072;2023-12-29T09:45:10;16.95;;;9.60;;
35877;SDS011;21982;49.804;24.072;2023-12-29T09:47:38;13.38;;;8.55;;
35877;SDS011;21982;49.804;24.072;2023-12-29T09:50:10;16.40;;;9.65;;
35877;SDS011;21982;49.804;24.072;2023-12-29T09:52:40;12.82;;;7.20;;
35877;SDS011;21982;49.804;24.072;2023-12-29T09:55:09;16.88;;;9.32;;
35877;SDS011;21982;49.804;24.072;2023-12-29T09:57:36;18.17;;;9.13;;
35877;SDS011;21982;49.804;24.072;2023-12-29T10:00:03;16.73;;;9.40;;
35877;SDS011;21982;49.804;24.072;2023-12-29T10:02:29;17.73;;;9.05;;
35877;SDS011;21982;49.804;24.072;2023-12-29T10:04:56;16.38;;;8.63;;
35877;SDS011;21982;49.804;24.072;2023-12-29T10:07:27;13.35;;;7.82;;
35877;SDS011;21982;49.804;24.072;2023-12-29T10:09:57;15.18;;;7.80;;
35877;SDS011;21982;49.804;24.072;2023-12-29T10:12:27;13.82;;;7.88;;
35877;SDS011;21982;49.804;24.072;2023-12-29T10:23:40;13.73;;;7.90;;
35877;SDS011;21982;49.804;24.072;2023-12-29T10:26:16;16.48;;;9.20;;
35877;SDS011;21982;49.804;24.072;2023-12-29T10:28:42;17.92;;;8.82;;
35877;SDS011;21982;49.804;24.072;2023-12-29T10:31:09;13.13;;;7.63;;
35877;SDS011;21982;49.804;24.072;2023-12-29T10:33:47;16.20;;;8.32;;
35877;SDS011;21982;49.804;24.072;2023-12-29T10:38:44;16.10;;;8.90;;
35877;SDS011;21982;49.804;24.072;2023-12-29T10:41:10;17.80;;;9.77;;
35877;SDS011;21982;49.804;24.072;2023-12-29T10:43:49;14.18;;;7.65;;
35877;SDS011;21982;49.804;24.072;2023-12-29T10:46:17;15.73;;;7.63;;
35877;SDS011;21982;49.804;24.072;2023-12-29T10:48:50;15.40;;;7.57;;
35877;SDS011;21982;49.804;24.072;2023-12-29T10:51:16;15.68;;;6.93;;
35877;SDS011;21982;49.804;24.072;2023-12-29T10:53:54;15.25;;;7.60;;
35877;SDS011;21982;49.804;24.072;2023-12-29T10:56:23;16.13;;;8.20;;
35877;SDS011;21982;49.804;24.072;2023-12-29T10:59:02;11.20;;;7.30;;
35877;SDS011;21982;49.804;24.072;2023-12-29T11:01:34;12.40;;;7.20;;
35877;SDS011;21982;49.804;24.072;2023-12-29T11:04:02;16.45;;;8.65;;
35877;SDS011;21982;49.804;24.072;2023-12-29T11:06:30;12.80;;;7.32;;
35877;SDS011;21982;49.804;24.072;2023-12-29T11:09:08;13.63;;;7.38;;
35877;SDS011;21982;49.804;24.072;2023-12-29T11:27:06;15.70;;;7.78;;
35877;SDS011;21982;49.804;24.072;2023-12-29T11:29:32;16.75;;;8.52;;
35877;SDS011;21982;49.804;24.072;2023-12-29T11:32:00;12.57;;;7.72;;
35877;SDS011;21982;49.804;24.072;2023-12-29T11:34:44;14.25;;;7.80;;
35877;SDS011;21982;49.804;24.072;2023-12-29T11:42:53;12.93;;;6.93;;
35877;SDS011;21982;49.804;24.072;2023-12-29T11:45:29;13.40;;;8.18;;
35877;SDS011;21982;49.804;24.072;2023-12-29T11:48:05;12.07;;;6.10;;
35877;SDS011;21982;49.804;24.072;2023-12-29T11:50:34;13.73;;;7.22;;
35877;SDS011;21982;49.804;24.072;2023-12-29T11:53:03;12.38;;;6.72;;
35877;SDS011;21982;49.804;24.072;2023-12-29T11:55:30;13.70;;;6.15;;
35877;SDS011;21982;49.804;24.072;2023-12-29T11:58:00;12.93;;;7.25;;
35877;SDS011;21982;49.804;24.072;2023-12-29T12:00:42;11.68;;;7.15;;
35877;SDS011;21982;49.804;24.072;2023-12-29T12:05:47;11.63;;;6.38;;
35877;SDS011;21982;49.804;24.072;2023-12-29T12:08:30;12.48;;;5.38;;
35877;SDS011;21982;49.804;24.072;2023-12-29T12:11:41;12.38;;;6.60;;
35877;SDS011;21982;49.804;24.072;2023-12-29T12:13:54;10.07;;;6.45;;
35877;SDS011;21982;49.804;24.072;2023-12-29T12:19:10;11.48;;;5.97;;
35877;SDS011;21982;49.804;24.072;2023-12-29T12:21:37;11.52;;;5.63;;
35877;SDS011;21982;49.804;24.072;2023-12-29T12:24:06;12.18;;;5.88;;
35877;SDS011;21982;49.804;24.072;2023-12-29T12:26:35;10.38;;;5.95;;
35877;SDS011;21982;49.804;24.072;2023-12-29T12:29:01;12.45;;;6.35;;
35877;SDS011;21982;49.804;24.072;2023-12-29T12:31:27;10.98;;;5.88;;
35877;SDS011;21982;49.804;24.072;2023-12-29T12:33:56;12.55;;;5.85;;
35877;SDS011;21982;49.804;24.072;2023-12-29T12:36:23;13.70;;;6.40;;
35877;SDS011;21982;49.804;24.072;2023-12-29T12:38:53;10.38;;;6.13;;
35877;SDS011;21982;49.804;24.072;2023-12-29T12:41:22;14.38;;;7.63;;
35877;SDS011;21982;49.804;24.072;2023-12-29T12:46:41;15.77;;;6.45;;
35877;SDS011;21982;49.804;24.072;2023-12-29T12:49:18;13.13;;;7.30;;
35877;SDS011;21982;49.804;24.072;2023-12-29T12:51:48;13.07;;;7.10;;
35877;SDS011;21982;49.804;24.072;2023-12-29T12:54:18;12.07;;;7.00;;
35877;SDS011;21982;49.804;24.072;2023-12-29T12:56:45;14.10;;;6.70;;
35877;SDS011;21982;49.804;24.072;2023-12-29T12:59:21;15.02;;;7.50;;
35877;SDS011;21982;49.804;24.072;2023-12-29T13:01:58;14.52;;;6.78;;
35877;SDS011;21982;49.804;24.072;2023-12-29T13:04:35;14.77;;;7.07;;
35877;SDS011;21982;49.804;24.072;2023-12-29T13:07:00;14.23;;;7.10;;
35877;SDS011;21982;49.804;24.072;2023-12-29T13:09:26;13.73;;;7.50;;
35877;SDS011;21982;49.804;24.072;2023-12-29T13:12:06;10.48;;;5.28;;
35877;SDS011;21982;49.804;24.072;2023-12-29T13:14:33;12.13;;;6.90;;
35877;SDS011;21982;49.804;24.072;2023-12-29T13:17:04;13.15;;;6.25;;
35877;SDS011;21982;49.804;24.072;2023-12-29T13:19:36;11.07;;;6.30;;
35877;SDS011;21982;49.804;24.072;2023-12-29T13:22:15;12.60;;;6.60;;
35877;SDS011;21982;49.804;24.072;2023-12-29T13:24:43;10.07;;;5.88;;
35877;SDS011;21982;49.804;24.072;2023-12-29T13:27:11;14.40;;;7.13;;
35877;SDS011;21982;49.804;24.072;2023-12-29T13:29:37;13.30;;;7.38;;
35877;SDS011;21982;49.804;24.072;2023-12-29T13:32:21;13.60;;;6.75;;
35877;SDS011;21982;49.804;24.072;2023-12-29T13:35:10;11.20;;;6.20;;
35877;SDS011;21982;49.804;24.072;2023-12-29T13:43:11;11.07;;;5.90;;
35877;SDS011;21982;49.804;24.072;2023-12-29T13:45:42;12.05;;;6.25;;
35877;SDS011;21982;49.804;24.072;2023-12-29T13:48:09;13.98;;;7.28;;
35877;SDS011;21982;49.804;24.072;2023-12-29T13:50:45;15.60;;;6.40;;
35877;SDS011;21982;49.804;24.072;2023-12-29T13:53:18;9.18;;;5.30;;
35877;SDS011;21982;49.804;24.072;2023-12-29T13:55:47;12.52;;;6.80;;
35877;SDS011;21982;49.804;24.072;2023-12-29T13:58:15;12.45;;;6.95;;
35877;SDS011;21982;49.804;24.072;2023-12-29T14:00:42;11.60;;;5.97;;
35877;SDS011;21982;49.804;24.072;2023-12-29T14:03:15;12.00;;;6.45;;
35877;SDS011;21982;49.804;24.072;2023-12-29T14:05:52;13.98;;;6.82;;
35877;SDS011;21982;49.804;24.072;2023-12-29T14:08:25;13.50;;;5.95;;
35877;SDS011;21982;49.804;24.072;2023-12-29T14:13:24;15.48;;;7.05;;
35877;SDS011;21982;49.804;24.072;2023-12-29T14:15:50;11.35;;;6.80;;
35877;SDS011;21982;49.804;24.072;2023-12-29T14:21:26;13.73;;;7.03;;
35877;SDS011;21982;49.804;24.072;2023-12-29T14:44:53;26.25;;;8.65;;
35877;SDS011;21982;49.804;24.072;2023-12-29T14:47:19;12.70;;;7.55;;
35877;SDS011;21982;49.804;24.072;2023-12-29T14:49:45;13.98;;;7.93;;
35877;SDS011;21982;49.804;24.072;2023-12-29T14:52:10;12.55;;;7.25;;
35877;SDS011;21982;49.804;24.072;2023-12-29T15:14:18;16.70;;;8.43;;
35877;SDS011;21982;49.804;24.072;2023-12-29T15:16:46;15.82;;;8.00;;
35877;SDS011;21982;49.804;24.072;2023-12-29T15:19:12;15.43;;;8.30;;
35877;SDS011;21982;49.804;24.072;2023-12-29T15:21:38;18.13;;;8.82;;
35877;SDS011;21982;49.804;24.072;2023-12-29T15:24:04;16.35;;;7.95;;
35877;SDS011;21982;49.804;24.072;2023-12-29T15:26:30;15.32;;;8.50;;
35877;SDS011;21982;49.804;24.072;2023-12-29T15:28:58;13.93;;;8.07;;
35877;SDS011;21982;49.804;24.072;2023-12-29T15:42:37;12.07;;;7.68;;
35877;SDS011;21982;49.804;24.072;2023-12-29T15:45:02;15.25;;;9.00;;
35877;SDS011;21982;49.804;24.072;2023-12-29T15:47:28;17.92;;;9.27;;
35877;SDS011;21982;49.804;24.072;2023-12-29T15:49:54;17.10;;;8.48;;
35877;SDS011;21982;49.804;24.072;2023-12-29T15:52:19;15.10;;;8.48;;
35877;SDS011;21982;49.804;24.072;2023-12-29T15:54:46;16.67;;;8.60;;
35877;SDS011;21982;49.804;24.072;2023-12-29T15:57:12;18.50;;;10.18;;
35877;SDS011;21982;49.804;24.072;2023-12-29T15:59:37;18.35;;;9.02;;
35877;SDS011;21982;49.804;24.072;2023-12-29T16:02:02;19.13;;;10.25;;
35877;SDS011;21982;49.804;24.072;2023-12-29T16:04:28;18.05;;;9.93;;
35877;SDS011;21982;49.804;24.072;2023-12-29T16:06:54;16.40;;;9.07;;
35877;SDS011;21982;49.804;24.072;2023-12-29T16:09:20;19.23;;;9.57;;
35877;SDS011;21982;49.804;24.072;2023-12-29T16:11:45;16.15;;;9.55;;
35877;SDS011;21982;49.804;24.072;2023-12-29T16:14:11;22.50;;;9.90;;
35877;SDS011;21982;49.804;24.072;2023-12-29T16:16:40;16.70;;;8.82;;
35877;SDS011;21982;49.804;24.072;2023-12-29T16:19:09;19.70;;;9.88;;
35877;SDS011;21982;49.804;24.072;2023-12-29T16:21:36;19.13;;;9.05;;
35877;SDS011;21982;49.804;24.072;2023-12-29T16:32:37;18.05;;;10.68;;
35877;SDS011;21982;49.804;24.072;2023-12-29T16:35:02;19.33;;;10.20;;
35877;SDS011;21982;49.804;24.072;2023-12-29T16:37:28;22.45;;;11.48;;
35877;SDS011;21982;49.804;24.072;2023-12-29T16:40:00;17.55;;;10.57;;
35877;SDS011;21982;49.804;24.072;2023-12-29T16:42:26;20.20;;;11.57;;
35877;SDS011;21982;49.804;24.072;2023-12-29T16:44:51;17.35;;;9.55;;
35877;SDS011;21982;49.804;24.072;2023-12-29T16:47:16;18.60;;;11.35;;
35877;SDS011;21982;49.804;24.072;2023-12-29T16:49:42;16.65;;;10.45;;
35877;SDS011;21982;49.804;24.072;2023-12-29T16:52:07;19.05;;;11.00;;
35877;SDS011;21982;49.804;24.072;2023-12-29T16:54:33;20.90;;;11.52;;
35877;SDS011;21982;49.804;24.072;2023-12-29T16:56:59;18.15;;;9.13;;
35877;SDS011;21982;49.804;24.072;2023-12-29T16:59:25;21.15;;;12.60;;
35877;SDS011;21982;49.804;24.072;2023-12-29T17:01:51;19.90;;;11.52;;
35877;SDS011;21982;49.804;24.072;2023-12-29T17:04:16;21.67;;;11.25;;
35877;SDS011;21982;49.804;24.072;2023-12-29T17:06:49;21.35;;;12.57;;
35877;SDS011;21982;49.804;24.072;2023-12-29T17:09:15;17.13;;;9.57;;
35877;SDS011;21982;49.804;24.072;2023-12-29T17:11:44;17.20;;;10.00;;
35877;SDS011;21982;49.804;24.072;2023-12-29T17:14:09;20.73;;;11.52;;
35877;SDS011;21982;49.804;24.072;2023-12-29T17:16:35;17.65;;;10.45;;
35877;SDS011;21982;49.804;24.072;2023-12-29T17:19:03;31.25;;;20.50;;
35877;SDS011;21982;49.804;24.072;2023-12-29T17:21:29;23.45;;;12.88;;
35877;SDS011;21982;49.804;24.072;2023-12-29T17:23:54;21.10;;;12.45;;
35877;SDS011;21982;49.804;24.072;2023-12-29T17:26:19;22.15;;;11.43;;
35877;SDS011;21982;49.804;24.072;2023-12-29T17:28:46;23.58;;;12.80;;
35877;SDS011;21982;49.804;24.072;2023-12-29T17:31:17;19.15;;;11.32;;